Time;durP1;ratioP1;P1;durP2;ratioP2;P2;SDS_P1;SDS_P2;PMS_P1;PMS_P2;Temp;Humidity;BMP_temperature;BMP_pressure;BME280_temperature;BME280_humidity;BME280_pressure;Samples;Min_cycle;Max_cycle;Signal;HPM_P1;HPM_P2
2022/08/14 00:02:16;;;;;;;12.13;4.73;;;20.70;65.50;;;;;;5033415;28;20944;-72
2022/08/14 00:05:02;;;;;;;6.83;4.97;;;20.90;64.70;;;;;;5031096;28;20449;-72
2022/08/14 00:07:48;;;;;;;5.23;4.73;;;21.10;64.60;;;;;;5033042;28;20479;-72
2022/08/14 00:10:34;;;;;;;6.30;5.30;;;21.40;64.10;;;;;;5042364;28;20570;-71
2022/08/14 00:13:22;;;;;;;5.30;4.77;;;21.30;63.50;;;;;;5028068;28;20863;-73
2022/08/14 00:16:13;;;;;;;8.07;4.97;;;21.50;63.30;;;;;;5028816;28;20452;-73
2022/08/14 00:18:59;;;;;;;8.37;4.77;;;21.50;63.20;;;;;;5032665;28;20416;-72
2022/08/14 00:21:44;;;;;;;5.93;4.33;;;21.50;63.00;;;;;;5037128;28;20530;-72
2022/08/14 00:24:30;;;;;;;7.77;6.40;;;21.40;63.40;;;;;;5038113;28;20432;-72
2022/08/14 00:27:16;;;;;;;6.10;5.50;;;21.40;63.90;;;;;;5037732;28;20434;-73
2022/08/14 00:30:01;;;;;;;7.00;5.67;;;21.40;64.30;;;;;;5036069;28;20550;-72
2022/08/14 00:32:48;;;;;;;5.80;5.20;;;21.30;64.50;;;;;;5035017;28;20428;-72
2022/08/14 00:35:34;;;;;;;6.50;5.07;;;21.30;65.00;;;;;;5029232;28;20464;-72
2022/08/14 00:38:20;;;;;;;5.87;5.00;;;21.30;65.00;;;;;;5031416;28;20789;-72
2022/08/14 00:41:08;;;;;;;5.90;5.30;;;21.40;65.60;;;;;;5032670;28;20441;-72
2022/08/14 00:43:54;;;;;;;7.43;6.20;;;21.30;65.30;;;;;;5036737;28;20451;-72
2022/08/14 00:46:40;;;;;;;6.53;5.50;;;21.40;65.40;;;;;;5036205;28;20941;-72
2022/08/14 00:49:28;;;;;;;6.20;5.57;;;21.30;66.00;;;;;;5031498;28;20451;-71
2022/08/14 00:52:16;;;;;;;7.90;5.20;;;21.30;66.10;;;;;;5033152;28;20515;-72
2022/08/14 00:55:03;;;;;;;7.73;5.17;;;21.30;66.30;;;;;;5027457;28;20454;-71
2022/08/14 00:58:29;;;;;;;6.17;5.33;;;21.20;67.20;;;;;;5035668;28;20540;-72
2022/08/14 01:00:55;;;;;;;6.33;5.70;;;21.00;68.10;;;;;;5043368;28;20513;-73
2022/08/14 01:03:41;;;;;;;7.50;5.30;;;21.00;68.80;;;;;;5036248;28;20420;-71
2022/08/14 01:06:31;;;;;;;7.43;6.40;;;21.00;69.30;;;;;;5030585;28;20949;-72
2022/08/14 01:09:21;;;;;;;7.60;5.40;;;20.90;70.40;;;;;;5036339;28;20595;-72
2022/08/14 01:12:08;;;;;;;6.00;5.50;;;20.80;70.70;;;;;;5037467;28;20801;-72
2022/08/14 01:14:54;;;;;;;6.60;5.87;;;20.80;72.00;;;;;;5021167;28;20455;-72
2022/08/14 01:23:50;;;;;;;5.83;5.20;;;20.90;72.60;;;;;;5034609;28;20785;-72
2022/08/14 01:26:36;;;;;;;7.10;5.63;;;20.70;73.00;;;;;;5034191;28;20424;-72
2022/08/14 01:29:22;;;;;;;7.87;5.77;;;20.60;74.00;;;;;;5029731;28;20992;-72
2022/08/14 01:32:08;;;;;;;6.83;5.63;;;20.60;74.10;;;;;;5037265;28;20427;-72
2022/08/14 01:34:56;;;;;;;8.43;6.63;;;20.50;74.50;;;;;;5026050;28;20965;-72
2022/08/14 01:37:44;;;;;;;7.00;6.30;;;20.60;75.00;;;;;;5036950;28;20429;-72
2022/08/14 01:40:31;;;;;;;7.00;5.23;;;20.60;74.20;;;;;;5034643;28;20808;-72
2022/08/14 01:43:17;;;;;;;6.97;5.80;;;20.60;74.40;;;;;;5031125;28;20957;-72
2022/08/14 01:46:03;;;;;;;6.63;6.03;;;20.60;74.80;;;;;;5024672;28;20474;-72
2022/08/14 01:48:50;;;;;;;8.37;6.10;;;20.70;74.20;;;;;;5033249;28;20443;-72
2022/08/14 01:51:38;;;;;;;8.47;6.07;;;20.70;74.00;;;;;;5033932;28;20989;-72
2022/08/14 01:54:24;;;;;;;6.30;5.67;;;20.60;74.60;;;;;;5023369;28;20542;-72
2022/08/14 01:57:12;;;;;;;6.50;5.90;;;20.50;74.40;;;;;;5029564;28;20424;-72
2022/08/14 01:59:57;;;;;;;10.00;6.43;;;20.30;75.50;;;;;;5033240;28;20440;-73
2022/08/14 02:02:43;;;;;;;6.87;6.20;;;20.30;76.10;;;;;;5034604;28;20441;-72
2022/08/14 02:05:29;;;;;;;6.57;5.90;;;20.20;76.10;;;;;;5027178;28;20433;-72
2022/08/14 02:08:15;;;;;;;9.57;6.60;;;20.20;76.30;;;;;;5035545;28;20431;-72
2022/08/14 02:11:22;;;;;;;7.67;5.80;;;20.10;77.10;;;;;;5032885;28;20476;-72
2022/08/14 02:14:11;;;;;;;7.43;6.63;;;20.10;77.30;;;;;;5024076;28;20915;-72
2022/08/14 02:16:56;;;;;;;7.00;6.20;;;20.10;78.10;;;;;;5033520;28;20479;-72
2022/08/14 02:19:42;;;;;;;13.57;6.83;;;20.00;78.70;;;;;;5041664;28;20789;-72
2022/08/14 02:22:28;;;;;;;6.63;5.77;;;20.00;79.50;;;;;;5040810;28;20476;-71
2022/08/14 02:25:14;;;;;;;7.90;6.50;;;19.90;79.70;;;;;;5031019;28;20984;-72
2022/08/14 02:27:59;;;;;;;7.33;6.60;;;19.90;80.00;;;;;;5038969;28;20433;-72
2022/08/14 02:30:46;;;;;;;9.43;8.13;;;19.80;81.40;;;;;;5033843;28;20584;-71
2022/08/14 02:33:32;;;;;;;7.40;6.60;;;19.60;83.60;;;;;;5034490;28;20418;-72
2022/08/14 02:36:18;;;;;;;7.73;6.80;;;19.50;84.40;;;;;;5032178;28;20526;-72
2022/08/14 02:39:05;;;;;;;6.70;6.00;;;19.40;85.60;;;;;;5035341;28;20560;-71
2022/08/14 02:41:51;;;;;;;10.83;7.07;;;19.50;85.90;;;;;;5046476;28;20447;-72
2022/08/14 02:44:38;;;;;;;8.90;6.60;;;19.50;86.30;;;;;;5031727;28;20452;-72
2022/08/14 02:47:25;;;;;;;12.60;6.20;;;19.50;86.20;;;;;;5036149;28;20425;-72
2022/08/14 02:50:11;;;;;;;9.40;7.70;;;19.60;85.70;;;;;;5033580;28;20558;-72
2022/08/14 02:52:56;;;;;;;7.30;6.60;;;19.70;85.30;;;;;;5033497;28;20964;-72
2022/08/14 02:55:43;;;;;;;10.60;6.33;;;19.50;85.90;;;;;;5034813;28;20799;-72
2022/08/14 02:58:30;;;;;;;11.10;7.17;;;19.50;85.90;;;;;;5036412;28;20509;-72
2022/08/14 03:01:18;;;;;;;10.17;7.00;;;19.50;86.10;;;;;;5039390;28;20849;-72
2022/08/14 03:04:09;;;;;;;7.87;6.90;;;19.50;86.40;;;;;;5027324;28;20637;-72
2022/08/14 03:06:55;;;;;;;10.23;7.30;;;19.50;86.30;;;;;;5033081;28;20433;-71
2022/08/14 03:09:41;;;;;;;8.40;7.50;;;19.40;86.50;;;;;;5042061;28;20476;-72
2022/08/14 03:12:27;;;;;;;10.67;7.13;;;19.40;86.90;;;;;;5032979;28;20444;-72
2022/08/14 03:15:13;;;;;;;8.03;7.20;;;19.20;87.10;;;;;;5031837;28;20428;-72
2022/08/14 03:17:59;;;;;;;11.83;7.93;;;19.20;88.80;;;;;;5034875;28;20447;-72
2022/08/14 03:20:46;;;;;;;9.00;7.50;;;19.20;88.50;;;;;;5036452;28;20448;-73
2022/08/14 03:23:34;;;;;;;8.60;6.70;;;19.20;88.80;;;;;;5029733;28;20917;-72
2022/08/14 03:26:23;;;;;;;7.87;7.10;;;19.20;88.60;;;;;;5033509;28;20425;-72
2022/08/14 03:29:13;;;;;;;8.63;7.30;;;19.30;89.00;;;;;;5035779;28;21000;-72
2022/08/14 03:31:59;;;;;;;8.57;7.17;;;19.30;88.60;;;;;;5031209;28;20487;-70
2022/08/14 03:34:46;;;;;;;7.93;7.13;;;19.20;88.80;;;;;;5033502;28;20787;-72
2022/08/14 03:37:33;;;;;;;8.90;6.90;;;19.20;88.50;;;;;;5035437;28;20560;-72
2022/08/14 03:40:19;;;;;;;8.17;7.37;;;19.00;90.00;;;;;;5033079;28;20448;-72
2022/08/14 03:43:05;;;;;;;16.23;7.90;;;19.00;90.20;;;;;;5026798;28;20519;-71
2022/08/14 03:45:51;;;;;;;8.40;7.60;;;19.00;90.60;;;;;;5032180;28;20938;-72
2022/08/14 03:48:38;;;;;;;8.07;7.37;;;18.90;91.50;;;;;;5034376;28;20615;-72
2022/08/14 03:51:27;;;;;;;8.13;7.37;;;19.00;91.10;;;;;;5032875;28;20481;-71
2022/08/14 03:54:14;;;;;;;15.03;7.53;;;18.90;91.10;;;;;;5033237;28;20440;-72
2022/08/14 03:57:00;;;;;;;9.10;7.40;;;18.90;91.40;;;;;;5033217;28;20811;-72
2022/08/14 03:59:46;;;;;;;8.67;7.70;;;18.80;91.50;;;;;;5039948;28;20808;-72
2022/08/14 04:02:32;;;;;;;8.03;7.23;;;18.70;92.80;;;;;;5024890;28;20932;-72
2022/08/14 04:05:17;;;;;;;8.33;7.53;;;18.60;93.10;;;;;;5035057;28;20432;-72
2022/08/14 04:08:03;;;;;;;9.80;7.83;;;18.70;93.30;;;;;;5030593;28;20428;-72
2022/08/14 04:10:50;;;;;;;8.47;7.57;;;18.70;93.10;;;;;;5036765;28;21017;-72
2022/08/14 04:13:38;;;;;;;9.80;7.13;;;18.70;93.20;;;;;;5032201;28;20932;-72
2022/08/14 04:16:24;;;;;;;9.07;8.17;;;18.80;92.80;;;;;;5033535;28;20555;-72
2022/08/14 04:19:10;;;;;;;8.40;7.60;;;18.80;92.40;;;;;;5036770;28;20564;-72
2022/08/14 04:21:55;;;;;;;15.03;7.50;;;18.80;92.70;;;;;;5029929;28;20998;-72
2022/08/14 04:24:44;;;;;;;8.13;7.33;;;18.80;92.80;;;;;;5037381;28;20428;-72
2022/08/14 04:27:31;;;;;;;9.77;8.77;;;18.80;92.90;;;;;;5031314;28;20462;-72
2022/08/14 04:30:16;;;;;;;8.93;8.07;;;18.80;92.80;;;;;;5026422;28;20957;-72
2022/08/14 04:33:02;;;;;;;10.50;7.03;;;18.80;93.10;;;;;;5027111;28;20818;-72
2022/08/14 04:35:49;;;;;;;10.40;9.27;;;18.80;92.80;;;;;;5042277;28;20550;-72
2022/08/14 04:44:42;;;;;;;25.03;8.30;;;18.90;93.10;;;;;;5032086;28;20408;-72
2022/08/14 04:50:31;;;;;;;17.03;8.07;;;18.80;92.90;;;;;;5036474;28;20495;-71
2022/08/14 04:53:19;;;;;;;8.03;7.33;;;18.80;93.10;;;;;;5032111;28;20433;-71
2022/08/14 04:56:05;;;;;;;22.33;8.30;;;18.80;93.30;;;;;;5036057;28;20428;-71
2022/08/14 04:58:56;;;;;;;10.67;7.53;;;18.80;93.10;;;;;;5037383;28;20427;-71
2022/08/14 05:01:43;;;;;;;16.13;7.80;;;18.90;93.50;;;;;;5030086;28;20574;-71
2022/08/14 05:04:28;;;;;;;14.43;9.07;;;19.00;93.20;;;;;;5033611;28;20467;-71
2022/08/14 05:07:14;;;;;;;13.87;8.23;;;19.10;93.40;;;;;;5032720;28;20520;-71
2022/08/14 05:10:00;;;;;;;7.80;7.00;;;19.10;93.00;;;;;;5037245;28;20444;-71
2022/08/14 05:12:46;;;;;;;12.77;7.90;;;19.20;93.10;;;;;;5031552;28;20439;-71
2022/08/14 05:15:34;;;;;;;9.00;8.07;;;19.30;93.00;;;;;;5029045;28;20427;-71
2022/08/14 05:18:23;;;;;;;15.93;8.43;;;19.30;92.90;;;;;;5034654;28;20436;-71
2022/08/14 05:21:10;;;;;;;8.67;7.77;;;19.30;93.90;;;;;;5024977;28;20468;-71
2022/08/14 05:23:55;;;;;;;9.20;8.30;;;19.20;93.70;;;;;;5030706;28;20435;-71
2022/08/14 05:26:45;;;;;;;8.47;7.70;;;19.20;93.60;;;;;;5032332;28;20425;-71
2022/08/14 05:29:31;;;;;;;9.00;8.10;;;19.30;93.70;;;;;;5029252;28;20451;-71
2022/08/14 05:32:16;;;;;;;8.67;7.87;;;19.40;94.50;;;;;;5024896;28;20591;-71
2022/08/14 05:35:04;;;;;;;9.07;8.20;;;19.60;94.30;;;;;;5036830;28;20511;-71
2022/08/14 05:37:50;;;;;;;16.23;9.10;;;19.70;93.90;;;;;;5035603;28;20477;-71
2022/08/14 05:40:36;;;;;;;11.03;8.73;;;19.80;93.90;;;;;;5033080;28;20841;-71
2022/08/14 05:43:21;;;;;;;7.70;6.90;;;19.90;93.50;;;;;;5034442;28;20398;-71
2022/08/14 05:46:09;;;;;;;9.67;7.03;;;20.10;93.30;;;;;;5035598;28;20432;-71
2022/08/14 05:48:57;;;;;;;13.90;8.10;;;20.20;93.30;;;;;;5034700;28;20501;-71
2022/08/14 05:51:45;;;;;;;8.90;8.10;;;20.40;93.60;;;;;;5025871;28;20476;-71
2022/08/14 05:54:31;;;;;;;18.33;9.50;;;20.50;93.50;;;;;;5033009;28;20433;-71
2022/08/14 05:57:16;;;;;;;9.13;8.23;;;20.60;93.40;;;;;;5036860;28;21092;-71
2022/08/14 06:00:02;;;;;;;9.00;8.10;;;20.80;93.20;;;;;;5031964;28;20464;-71
2022/08/14 06:02:48;;;;;;;8.40;7.50;;;20.90;93.30;;;;;;5030604;28;20930;-71
2022/08/14 06:05:34;;;;;;;9.90;8.27;;;21.00;92.90;;;;;;5035633;28;20795;-71
2022/08/14 06:08:24;;;;;;;8.73;7.87;;;21.10;92.40;;;;;;5041550;28;20937;-72
2022/08/14 06:11:10;;;;;;;9.83;8.80;;;21.20;92.40;;;;;;5025422;28;20476;-71
2022/08/14 06:13:56;;;;;;;10.23;9.23;;;21.40;92.30;;;;;;5035523;28;20429;-71
2022/08/14 06:16:44;;;;;;;10.23;9.00;;;21.40;92.30;;;;;;5035746;28;20799;-71
2022/08/14 06:19:29;;;;;;;12.33;9.30;;;21.60;91.90;;;;;;5031601;28;20482;-71
2022/08/14 06:22:15;;;;;;;10.10;9.10;;;21.70;91.30;;;;;;5039040;28;20420;-71
2022/08/14 06:25:02;;;;;;;10.13;8.90;;;21.80;90.30;;;;;;5040710;28;21052;-71
2022/08/14 06:27:49;;;;;;;10.00;8.93;;;21.90;89.70;;;;;;5040734;28;20498;-71
2022/08/14 06:30:35;;;;;;;9.33;8.43;;;22.10;89.00;;;;;;5029769;28;20472;-71
2022/08/14 06:33:21;;;;;;;10.00;9.00;;;22.20;89.20;;;;;;5034543;28;21012;-71
2022/08/14 06:36:08;;;;;;;8.73;7.83;;;22.30;86.00;;;;;;5038815;28;20439;-71
2022/08/14 06:38:54;;;;;;;10.60;9.00;;;22.50;85.90;;;;;;5038189;28;20558;-71
2022/08/14 06:41:41;;;;;;;9.20;8.30;;;22.50;83.90;;;;;;5031649;28;20615;-71
2022/08/14 06:44:28;;;;;;;11.67;8.60;;;22.50;84.00;;;;;;5038003;28;20511;-71
2022/08/14 06:47:13;;;;;;;8.83;7.90;;;22.70;81.60;;;;;;5038163;28;20432;-71
2022/08/14 06:49:59;;;;;;;9.53;8.53;;;22.70;80.00;;;;;;5035903;28;20956;-71
2022/08/14 06:52:45;;;;;;;9.33;7.87;;;22.80;78.80;;;;;;5042335;28;20474;-71
2022/08/14 06:55:31;;;;;;;8.67;7.87;;;22.90;77.00;;;;;;5033779;28;20588;-71
2022/08/14 06:58:20;;;;;;;8.93;8.03;;;23.00;76.70;;;;;;5029065;28;20459;-71
2022/08/14 07:07:14;;;;;;;8.10;7.20;;;23.30;71.20;;;;;;5021454;28;20884;-72
2022/08/14 07:10:00;;;;;;;8.43;7.50;;;23.40;71.30;;;;;;5029994;28;20981;-71
2022/08/14 07:12:46;;;;;;;9.50;8.20;;;23.60;70.10;;;;;;5042080;28;20471;-71
2022/08/14 07:15:34;;;;;;;18.57;8.27;;;23.60;69.20;;;;;;5037809;28;20483;-72
2022/08/14 07:18:20;;;;;;;10.47;7.47;;;23.70;67.90;;;;;;5036694;28;20507;-71
2022/08/14 07:21:06;;;;;;;9.33;8.33;;;23.80;68.00;;;;;;5033608;28;20448;-71
2022/08/14 07:23:52;;;;;;;8.20;7.40;;;23.90;67.10;;;;;;5035420;28;20580;-71
2022/08/14 07:26:39;;;;;;;8.30;7.50;;;24.00;66.20;;;;;;5039465;28;20812;-71
2022/08/14 07:29:25;;;;;;;12.33;7.50;;;24.00;66.10;;;;;;5025380;28;20448;-71
2022/08/14 07:32:12;;;;;;;9.97;6.47;;;24.10;65.40;;;;;;5038141;28;20555;-71
2022/08/14 07:34:58;;;;;;;9.07;8.27;;;24.20;64.40;;;;;;5034348;28;20432;-71
2022/08/14 07:37:47;;;;;;;11.53;7.93;;;24.30;63.80;;;;;;5038881;28;20946;-71
2022/08/14 07:40:34;;;;;;;8.00;7.20;;;24.40;63.10;;;;;;5029084;28;20479;-71
2022/08/14 07:43:20;;;;;;;10.10;7.07;;;24.50;62.80;;;;;;5033145;28;20432;-71
2022/08/14 07:46:07;;;;;;;8.37;7.57;;;24.70;60.60;;;;;;5033576;28;20428;-71
2022/08/14 07:48:55;;;;;;;14.17;7.60;;;24.80;60.10;;;;;;5018964;28;20465;-71
2022/08/14 07:51:41;;;;;;;8.80;7.90;;;24.80;58.60;;;;;;5038600;28;20484;-71
2022/08/14 07:54:27;;;;;;;9.77;7.93;;;24.80;58.40;;;;;;5040731;28;20433;-72
2022/08/14 07:57:13;;;;;;;9.30;8.40;;;24.80;57.50;;;;;;5036480;28;20548;-71
2022/08/14 07:59:58;;;;;;;8.53;7.73;;;25.00;55.60;;;;;;5027812;28;20657;-71
2022/08/14 08:02:46;;;;;;;8.17;7.30;;;25.10;57.10;;;;;;5035071;28;21012;-71
2022/08/14 08:05:33;;;;;;;7.80;7.00;;;25.10;54.30;;;;;;5031413;28;20427;-71
2022/08/14 08:08:21;;;;;;;8.70;7.30;;;25.20;54.50;;;;;;5035944;28;20510;-71
2022/08/14 08:11:07;;;;;;;8.20;7.50;;;25.30;52.30;;;;;;5030651;28;20504;-72
2022/08/14 08:13:55;;;;;;;7.40;6.70;;;25.50;53.00;;;;;;5037895;28;20498;-71
2022/08/14 08:16:40;;;;;;;9.57;8.47;;;25.60;53.00;;;;;;5040007;28;20579;-71
2022/08/14 08:19:26;;;;;;;13.63;8.00;;;25.60;51.20;;;;;;5025767;28;20457;-71
2022/08/14 08:22:14;;;;;;;7.73;6.93;;;25.70;50.40;;;;;;5036002;28;20488;-71
2022/08/14 08:25:00;;;;;;;8.37;7.63;;;25.70;49.60;;;;;;5037637;28;20496;-71
2022/08/14 08:27:58;;;;;;;7.27;6.57;;;25.80;49.00;;;;;;5032657;28;20439;-71
2022/08/14 08:30:49;;;;;;;8.83;7.27;;;25.90;47.90;;;;;;5037563;28;20499;-71
2022/08/14 08:33:37;;;;;;;10.57;6.50;;;26.00;47.80;;;;;;5030564;28;20474;-71
2022/08/14 08:36:22;;;;;;;7.33;6.60;;;26.10;43.40;;;;;;5034521;28;20798;-71
2022/08/14 08:39:10;;;;;;;7.73;6.60;;;26.10;43.90;;;;;;5025909;28;20454;-71
2022/08/14 08:41:56;;;;;;;7.30;6.60;;;26.20;42.60;;;;;;5032879;28;21034;-71
2022/08/14 08:44:41;;;;;;;7.30;5.60;;;26.20;42.90;;;;;;5031037;28;20933;-71
2022/08/14 08:47:38;;;;;;;18.10;6.43;;;26.30;42.80;;;;;;5032869;28;20782;-71
2022/08/14 08:50:29;;;;;;;7.60;6.80;;;26.40;41.90;;;;;;5031150;28;20464;-71
2022/08/14 08:53:15;;;;;;;7.53;6.20;;;26.50;39.60;;;;;;5036280;28;20476;-71
2022/08/14 08:56:03;;;;;;;12.00;6.30;;;26.60;38.20;;;;;;5034156;28;20498;-71
2022/08/14 08:58:49;;;;;;;9.93;6.37;;;26.60;39.20;;;;;;5026749;28;20844;-71
2022/08/14 09:01:34;;;;;;;6.57;5.97;;;26.70;36.40;;;;;;5032666;28;20444;-71
2022/08/14 09:04:21;;;;;;;9.43;6.07;;;26.70;36.50;;;;;;5030625;28;20796;-71
2022/08/14 09:07:07;;;;;;;13.00;6.70;;;26.80;36.10;;;;;;5029081;28;20518;-71
2022/08/14 09:09:55;;;;;;;8.40;6.03;;;26.80;37.10;;;;;;5030823;28;20427;-71
2022/08/14 09:12:42;;;;;;;6.10;5.50;;;26.80;36.20;;;;;;5033923;28;20472;-71
2022/08/14 09:15:28;;;;;;;7.60;6.80;;;26.80;36.40;;;;;;5035483;28;20428;-71
2022/08/14 09:18:16;;;;;;;6.73;5.90;;;27.00;36.60;;;;;;5029405;28;20452;-71
2022/08/14 09:21:01;;;;;;;6.90;6.17;;;27.10;35.80;;;;;;5032863;28;20452;-71
2022/08/14 09:23:47;;;;;;;6.23;5.63;;;27.40;35.30;;;;;;5033830;28;20424;-72
2022/08/14 09:26:33;;;;;;;7.00;4.90;;;27.50;34.30;;;;;;5030582;28;20564;-71
2022/08/14 09:29:21;;;;;;;6.23;5.63;;;27.60;32.70;;;;;;5031365;28;20918;-71
2022/08/14 09:32:07;;;;;;;6.40;5.80;;;27.70;33.90;;;;;;5033423;28;20471;-71
2022/08/14 09:35:02;;;;;;;5.70;5.20;;;27.80;32.80;;;;;;5037728;28;20768;-71
2022/08/14 09:38:00;;;;;;;6.07;5.47;;;27.80;30.40;;;;;;5024750;28;20445;-71
2022/08/14 09:40:59;;;;;;;5.27;4.73;;;27.90;30.20;;;;;;5033741;28;20436;-71
2022/08/14 09:43:58;;;;;;;7.20;4.80;;;27.90;30.10;;;;;;5037452;28;20997;-71
2022/08/14 09:46:54;;;;;;;5.37;4.53;;;28.00;29.20;;;;;;5027163;28;20444;-71
2022/08/14 09:49:41;;;;;;;5.10;4.60;;;28.20;28.00;;;;;;5034385;28;20428;-71
2022/08/14 09:52:27;;;;;;;5.80;4.53;;;28.30;27.90;;;;;;5039403;28;20491;-71
2022/08/14 09:55:18;;;;;;;10.50;4.83;;;28.40;28.80;;;;;;5037404;28;20435;-71
2022/08/14 09:58:10;;;;;;;15.77;4.70;;;28.40;27.60;;;;;;5021309;28;20444;-71
2022/08/14 10:00:59;;;;;;;10.20;5.00;;;28.50;27.70;;;;;;5033872;28;20448;-72
2022/08/14 10:03:51;;;;;;;5.57;4.60;;;28.50;26.10;;;;;;5032760;28;20785;-72
2022/08/14 10:06:44;;;;;;;10.03;4.90;;;28.60;25.80;;;;;;5031395;28;20920;-72
2022/08/14 10:09:30;;;;;;;4.83;4.20;;;28.60;26.20;;;;;;5032814;28;20956;-71
2022/08/14 10:12:15;;;;;;;5.57;4.00;;;28.70;25.50;;;;;;5038340;28;20530;-71
2022/08/14 10:15:01;;;;;;;5.03;3.97;;;28.90;24.00;;;;;;5031360;28;20518;-71
2022/08/14 10:17:48;;;;;;;4.30;3.90;;;29.00;23.20;;;;;;5027638;28;20444;-71
2022/08/14 10:20:40;;;;;;;4.50;3.63;;;29.10;23.40;;;;;;5035131;28;20617;-71
2022/08/14 10:23:27;;;;;;;7.00;4.10;;;29.30;22.30;;;;;;5031744;28;20434;-71
2022/08/14 10:26:16;;;;;;;4.30;3.90;;;29.30;22.70;;;;;;5031609;28;20452;-71
2022/08/14 10:29:09;;;;;;;4.70;3.33;;;29.50;22.60;;;;;;5029501;28;20798;-71
2022/08/14 10:31:58;;;;;;;4.70;4.20;;;29.60;22.60;;;;;;5027633;28;20480;-72
2022/08/14 10:34:44;;;;;;;6.13;3.97;;;29.70;21.70;;;;;;5034632;28;20416;-71
2022/08/14 10:37:38;;;;;;;5.80;3.63;;;29.80;22.00;;;;;;5023367;28;20451;-72
2022/08/14 10:40:27;;;;;;;5.30;3.47;;;29.90;20.90;;;;;;5030043;28;20806;-71
2022/08/14 10:43:18;;;;;;;8.27;3.60;;;30.00;21.40;;;;;;5032290;28;20413;-72
2022/08/14 10:46:13;;;;;;;4.30;3.70;;;30.00;21.00;;;;;;5025144;28;20577;-71
2022/08/14 10:49:01;;;;;;;5.10;3.70;;;30.00;20.50;;;;;;5033472;28;20423;-71
2022/08/14 10:52:05;;;;;;;10.73;4.30;;;30.00;20.60;;;;;;5031551;28;20452;-71
2022/08/14 10:54:52;;;;;;;6.13;3.83;;;30.10;19.70;;;;;;5039866;28;20432;-72
2022/08/14 10:57:49;;;;;;;4.50;3.50;;;30.20;20.00;;;;;;5028993;28;21383;-71
2022/08/14 11:00:35;;;;;;;4.70;3.20;;;30.40;18.40;;;;;;5033994;28;20456;-71
2022/08/14 11:03:24;;;;;;;8.83;3.30;;;30.50;18.00;;;;;;5036694;28;20490;-71
2022/08/14 11:06:18;;;;;;;6.60;3.37;;;30.50;17.70;;;;;;5028386;28;20464;-71
2022/08/14 11:09:13;;;;;;;5.27;3.57;;;30.40;18.50;;;;;;5039486;28;20560;-71
2022/08/14 11:12:00;;;;;;;10.90;3.53;;;30.50;19.30;;;;;;5035177;28;20490;-71
2022/08/14 11:14:52;;;;;;;5.10;3.03;;;30.60;17.80;;;;;;5032499;28;20576;-71
2022/08/14 11:17:37;;;;;;;5.07;3.30;;;30.70;18.10;;;;;;5027919;28;20433;-72
2022/08/14 11:20:28;;;;;;;5.20;3.30;;;30.70;17.70;;;;;;5038640;28;20469;-71
2022/08/14 11:23:15;;;;;;;4.17;3.70;;;30.90;17.90;;;;;;5034317;28;20955;-71
2022/08/14 11:26:02;;;;;;;4.10;3.33;;;30.90;18.40;;;;;;5029488;28;20464;-71
2022/08/14 11:28:50;;;;;;;4.63;3.33;;;30.90;16.80;;;;;;5041356;28;20436;-71
2022/08/14 11:31:38;;;;;;;4.90;3.30;;;30.90;17.40;;;;;;5032454;28;20440;-72
2022/08/14 11:34:23;;;;;;;4.00;3.33;;;30.90;18.50;;;;;;5036982;28;20490;-71
2022/08/14 11:37:10;;;;;;;4.27;3.80;;;31.10;17.70;;;;;;5034097;28;20447;-71
2022/08/14 11:39:56;;;;;;;13.93;3.47;;;31.20;18.30;;;;;;5037557;28;20933;-71
2022/08/14 11:42:46;;;;;;;5.00;3.87;;;31.30;18.50;;;;;;5040258;28;20425;-71
2022/08/14 11:45:35;;;;;;;5.03;3.67;;;31.40;18.20;;;;;;5023006;28;20460;-71
2022/08/14 11:48:22;;;;;;;7.43;3.40;;;31.50;17.50;;;;;;5037805;28;20611;-72
2022/08/14 11:51:13;;;;;;;5.83;3.23;;;31.70;17.10;;;;;;5033207;28;20458;-71
2022/08/14 11:54:02;;;;;;;4.27;3.50;;;31.70;17.00;;;;;;5035749;28;20460;-71
2022/08/14 11:56:50;;;;;;;4.10;3.20;;;31.70;16.60;;;;;;5029999;28;20452;-72
2022/08/14 11:59:35;;;;;;;4.10;3.50;;;31.70;16.30;;;;;;5037047;28;20493;-72
2022/08/14 12:02:22;;;;;;;3.80;3.20;;;31.80;16.80;;;;;;5035976;28;20430;-72
2022/08/14 12:05:09;;;;;;;6.17;3.80;;;31.80;17.30;;;;;;5024309;28;20448;-72
2022/08/14 12:07:54;;;;;;;4.60;3.30;;;31.90;15.40;;;;;;5035676;28;20567;-71
2022/08/14 12:10:43;;;;;;;5.70;3.40;;;32.00;16.10;;;;;;5042773;28;21032;-71
2022/08/14 12:13:31;;;;;;;4.20;3.80;;;32.10;17.00;;;;;;5034799;28;20488;-71
2022/08/14 12:16:19;;;;;;;8.03;4.20;;;32.20;16.40;;;;;;5030963;28;20587;-71
2022/08/14 12:19:07;;;;;;;7.63;3.63;;;32.40;17.10;;;;;;5040854;28;20428;-71
2022/08/14 12:21:52;;;;;;;4.30;3.83;;;32.40;16.00;;;;;;5042410;28;20519;-72
2022/08/14 12:24:38;;;;;;;7.17;3.67;;;32.50;16.00;;;;;;5033480;28;20981;-72
2022/08/14 12:27:35;;;;;;;5.10;4.23;;;32.70;16.10;;;;;;5029448;28;20420;-71
2022/08/14 12:30:33;;;;;;;7.20;3.80;;;32.50;15.30;;;;;;5038197;28;20981;-71
2022/08/14 12:33:24;;;;;;;10.63;4.23;;;32.50;15.90;;;;;;5038633;28;20484;-72
2022/08/14 12:36:20;;;;;;;5.90;4.20;;;32.30;15.00;;;;;;5029087;28;20447;-71
2022/08/14 12:39:18;;;;;;;6.97;4.10;;;32.10;15.20;;;;;;5036163;28;20435;-71
2022/08/14 12:42:07;;;;;;;5.30;4.80;;;32.30;16.40;;;;;;5031095;28;20449;-71
2022/08/14 12:44:56;;;;;;;8.47;4.37;;;32.60;15.70;;;;;;5027360;28;20456;-72
2022/08/14 12:47:42;;;;;;;4.83;3.60;;;32.80;16.20;;;;;;5037261;28;20806;-72
2022/08/14 12:50:36;;;;;;;5.00;4.23;;;33.10;16.10;;;;;;5023770;28;20986;-71
2022/08/14 12:53:35;;;;;;;5.10;4.17;;;33.00;14.90;;;;;;5036961;28;20468;-71
2022/08/14 12:56:24;;;;;;;8.83;4.50;;;32.90;15.00;;;;;;5028180;28;20945;-71
2022/08/14 12:59:10;;;;;;;8.03;4.57;;;33.10;15.70;;;;;;5038777;28;20501;-72
2022/08/14 13:01:57;;;;;;;12.57;4.00;;;33.20;16.10;;;;;;5032291;28;20977;-72
2022/08/14 13:04:48;;;;;;;4.87;4.20;;;33.40;14.80;;;;;;5028030;28;20437;-72
2022/08/14 13:07:33;;;;;;;4.13;3.70;;;33.40;14.10;;;;;;5030405;28;20424;-72
2022/08/14 13:10:21;;;;;;;9.63;4.10;;;33.50;15.60;;;;;;5040642;28;20982;-72
2022/08/14 13:13:09;;;;;;;5.50;4.70;;;33.60;14.60;;;;;;5032994;28;20973;-72
2022/08/14 13:15:56;;;;;;;6.00;4.43;;;33.80;15.10;;;;;;5026343;28;20914;-71
2022/08/14 13:18:42;;;;;;;5.23;4.00;;;33.90;14.80;;;;;;5033872;28;20431;-71
2022/08/14 13:21:30;;;;;;;19.13;4.57;;;34.00;14.30;;;;;;5034755;28;20498;-71
2022/08/14 13:24:15;;;;;;;4.40;4.00;;;34.20;14.50;;;;;;5031318;28;21016;-71
2022/08/14 13:27:03;;;;;;;7.00;4.50;;;34.30;14.50;;;;;;5037862;28;20951;-71
2022/08/14 13:29:52;;;;;;;6.30;4.07;;;34.40;14.40;;;;;;5033681;28;20934;-71
2022/08/14 13:32:39;;;;;;;5.70;4.20;;;34.40;14.60;;;;;;5038950;28;20464;-71
2022/08/14 13:35:25;;;;;;;5.87;4.30;;;34.60;14.20;;;;;;5030229;28;20448;-71
2022/08/14 13:38:11;;;;;;;5.80;4.00;;;34.70;13.10;;;;;;5032621;28;20441;-71
2022/08/14 13:40:57;;;;;;;4.77;3.80;;;34.80;13.60;;;;;;5035743;28;20449;-71
2022/08/14 13:43:49;;;;;;;5.43;3.90;;;35.00;13.30;;;;;;5031316;28;20584;-71
2022/08/14 13:46:34;;;;;;;4.97;3.77;;;35.20;13.40;;;;;;5036158;28;20480;-71
2022/08/14 13:49:20;;;;;;;6.07;4.20;;;35.00;13.30;;;;;;5030676;28;20428;-71
2022/08/14 13:52:10;;;;;;;5.07;3.90;;;34.90;13.20;;;;;;5033879;28;20463;-71
2022/08/14 13:55:02;;;;;;;4.70;4.00;;;34.70;13.10;;;;;;5027991;28;20940;-71
2022/08/14 13:57:48;;;;;;;5.20;3.90;;;34.40;13.60;;;;;;5032578;28;20923;-71
2022/08/14 14:00:37;;;;;;;4.10;3.70;;;34.10;14.20;;;;;;5041242;28;20444;-71
2022/08/14 14:03:24;;;;;;;4.60;3.87;;;34.00;15.20;;;;;;5027501;28;20442;-71
2022/08/14 14:06:11;;;;;;;4.80;3.70;;;34.00;12.70;;;;;;5033581;28;20507;-71
2022/08/14 14:08:57;;;;;;;4.97;3.70;;;34.10;13.30;;;;;;5036228;28;20428;-71
2022/08/14 14:11:44;;;;;;;5.90;3.90;;;34.30;13.20;;;;;;5031117;28;20444;-71
2022/08/14 14:14:29;;;;;;;5.00;4.17;;;34.60;13.00;;;;;;5024712;28;20832;-71
2022/08/14 14:17:23;;;;;;;5.33;3.90;;;34.80;13.30;;;;;;5035992;28;20447;-71
2022/08/14 14:20:11;;;;;;;5.40;4.17;;;34.90;13.20;;;;;;5033690;28;20556;-71
2022/08/14 14:22:57;;;;;;;6.20;4.20;;;35.10;12.40;;;;;;5034118;28;20442;-72
2022/08/14 14:25:44;;;;;;;5.67;3.93;;;35.20;11.70;;;;;;5031377;28;20523;-71
2022/08/14 14:28:32;;;;;;;4.70;3.70;;;35.30;12.50;;;;;;5038802;28;20929;-71
2022/08/14 14:31:23;;;;;;;5.03;4.13;;;35.30;11.90;;;;;;5036466;28;20456;-71
2022/08/14 14:34:10;;;;;;;4.50;3.53;;;35.30;12.30;;;;;;5031589;28;20514;-71
2022/08/14 14:37:03;;;;;;;5.30;4.10;;;35.20;11.70;;;;;;5039706;28;20956;-71
2022/08/14 14:39:51;;;;;;;4.43;3.47;;;35.00;10.90;;;;;;5038064;28;20429;-71
2022/08/14 14:42:45;;;;;;;4.67;4.17;;;34.90;11.60;;;;;;5039290;28;20449;-71
2022/08/14 14:45:31;;;;;;;8.53;3.87;;;34.30;10.80;;;;;;5030703;28;20507;-71
2022/08/14 14:48:18;;;;;;;4.67;3.87;;;34.00;12.40;;;;;;5039748;28;20444;-71
2022/08/14 14:51:05;;;;;;;6.17;4.00;;;33.80;12.50;;;;;;5039276;28;20992;-71
2022/08/14 14:53:52;;;;;;;5.03;3.70;;;33.60;11.90;;;;;;5034591;28;21031;-71